createdAt,value
2022-10-22T00:01:11.684Z,18.15
2022-10-22T00:03:41.611Z,18.58
2022-10-22T00:06:09.898Z,17.50
2022-10-22T00:08:37.734Z,21.00
2022-10-22T00:11:24.076Z,16.98
2022-10-22T00:13:52.088Z,17.02
2022-10-22T00:16:20.194Z,18.65
2022-10-22T00:18:48.538Z,19.02
2022-10-22T00:21:17.486Z,13.18
2022-10-22T00:23:45.443Z,15.85
2022-10-22T00:26:13.835Z,16.92
2022-10-22T00:28:41.752Z,19.30
2022-10-22T00:31:10.491Z,17.52
2022-10-22T00:33:38.278Z,20.80
2022-10-22T00:36:06.847Z,18.33
2022-10-22T00:38:35.365Z,21.00
2022-10-22T00:41:03.764Z,15.82
2022-10-22T00:43:31.660Z,18.08
2022-10-22T00:45:59.755Z,17.17
2022-10-22T00:48:30.009Z,16.08
2022-10-22T00:51:08.014Z,18.77
2022-10-22T00:53:41.503Z,18.10
2022-10-22T00:56:11.033Z,17.10
2022-10-22T00:58:44.588Z,18.10
2022-10-22T01:01:18.419Z,19.15
2022-10-22T01:03:46.279Z,21.88
2022-10-22T01:06:28.606Z,13.13
2022-10-22T01:09:21.011Z,17.60
2022-10-22T01:12:15.324Z,19.40
2022-10-22T01:15:03.907Z,21.13
2022-10-22T01:17:56.792Z,18.98
2022-10-22T01:20:39.911Z,19.23
2022-10-22T01:23:23.379Z,20.67
2022-10-22T01:25:58.815Z,18.63
2022-10-22T01:28:51.024Z,21.92
2022-10-22T01:31:21.207Z,19.60
2022-10-22T01:33:50.545Z,26.05
2022-10-22T01:36:19.632Z,20.05
2022-10-22T01:38:49.702Z,23.95
2022-10-22T01:41:17.741Z,23.45
2022-10-22T01:43:45.884Z,22.70
2022-10-22T01:46:14.745Z,21.20
2022-10-22T01:49:03.894Z,21.67
2022-10-22T01:52:03.234Z,20.80
2022-10-22T01:55:22.490Z,19.67
2022-10-22T01:58:24.315Z,24.48
2022-10-22T02:01:28.243Z,22.77
2022-10-22T02:04:12.812Z,18.55
2022-10-22T02:06:44.546Z,19.63
2022-10-22T02:09:15.307Z,22.52
2022-10-22T02:11:44.821Z,23.23
2022-10-22T02:14:14.446Z,18.30
2022-10-22T02:16:45.631Z,22.58
2022-10-22T02:19:43.195Z,20.10
2022-10-22T02:22:11.648Z,20.90
2022-10-22T02:24:39.798Z,21.77
2022-10-22T02:27:34.237Z,21.75
2022-10-22T02:30:07.185Z,23.33
2022-10-22T02:32:48.799Z,23.02
2022-10-22T02:35:23.643Z,23.95
2022-10-22T02:37:54.624Z,23.02
2022-10-22T02:42:51.704Z,23.50
2022-10-22T02:45:20.681Z,32.47
2022-10-22T02:47:49.260Z,24.63
2022-10-22T02:50:17.292Z,28.38
2022-10-22T02:52:45.303Z,25.02
2022-10-22T02:55:13.243Z,25.30
2022-10-22T02:57:41.658Z,29.27
2022-10-22T03:00:11.425Z,27.05
2022-10-22T03:02:39.582Z,29.55
2022-10-22T03:05:08.004Z,28.70
2022-10-22T03:07:36.196Z,29.25
2022-10-22T03:10:04.697Z,24.33
2022-10-22T03:12:32.983Z,32.33
2022-10-22T03:15:00.695Z,25.48
2022-10-22T03:17:28.875Z,26.33
2022-10-22T03:19:56.679Z,26.70
2022-10-22T03:22:28.109Z,31.05
2022-10-22T03:25:00.892Z,27.42
2022-10-22T03:27:30.565Z,32.80
2022-10-22T03:29:59.910Z,31.25
2022-10-22T03:32:27.997Z,28.50
2022-10-22T03:34:56.022Z,28.33
2022-10-22T03:37:25.353Z,27.00
2022-10-22T03:39:54.636Z,30.63
2022-10-22T03:42:23.093Z,31.20
2022-10-22T03:44:51.109Z,36.28
2022-10-22T03:47:19.264Z,34.88
2022-10-22T03:49:47.272Z,29.83
2022-10-22T03:52:15.725Z,29.17
2022-10-22T03:54:44.289Z,35.17
2022-10-22T03:57:12.599Z,31.35
2022-10-22T03:59:45.338Z,37.28
2022-10-22T04:02:14.201Z,30.33
2022-10-22T04:04:42.140Z,26.80
2022-10-22T04:07:10.317Z,30.08
2022-10-22T04:09:38.157Z,34.70
2022-10-22T04:12:08.175Z,34.67
2022-10-22T04:14:36.034Z,30.30
2022-10-22T04:17:04.218Z,31.52
2022-10-22T04:19:32.089Z,27.83
2022-10-22T04:22:01.015Z,30.77
2022-10-22T04:24:32.035Z,32.67
2022-10-22T04:27:00.971Z,30.90
2022-10-22T04:29:29.108Z,33.58
2022-10-22T04:31:57.419Z,31.20
2022-10-22T04:34:28.566Z,34.42
2022-10-22T04:36:56.940Z,35.95
2022-10-22T04:39:24.798Z,33.83
2022-10-22T04:41:52.880Z,34.83
2022-10-22T04:44:20.886Z,30.40
2022-10-22T04:46:49.184Z,32.42
2022-10-22T04:49:17.071Z,32.15
2022-10-22T04:51:47.412Z,34.38
2022-10-22T04:54:15.322Z,31.80
2022-10-22T04:56:43.684Z,39.88
2022-10-22T04:59:15.125Z,31.73
2022-10-22T05:01:44.812Z,35.03
2022-10-22T05:04:15.809Z,36.50
2022-10-22T05:06:44.905Z,39.65
2022-10-22T05:09:15.441Z,37.85
2022-10-22T05:11:49.090Z,38.30
2022-10-22T05:14:22.764Z,40.58
2022-10-22T05:16:52.077Z,38.40
2022-10-22T05:19:25.771Z,43.42
2022-10-22T05:21:56.758Z,41.22
2022-10-22T05:24:25.865Z,41.60
2022-10-22T05:26:56.088Z,40.05
2022-10-22T05:29:24.497Z,45.53
2022-10-22T05:31:53.479Z,39.17
2022-10-22T05:34:21.541Z,40.30
2022-10-22T05:36:49.728Z,39.47
2022-10-22T05:39:17.555Z,44.65
2022-10-22T05:41:45.671Z,38.92
2022-10-22T05:44:16.519Z,60.22
2022-10-22T05:46:45.020Z,77.03
2022-10-22T05:49:15.321Z,131.20
2022-10-22T05:51:43.539Z,100.60
2022-10-22T05:54:19.965Z,71.90
2022-10-22T05:56:48.287Z,57.42
2022-10-22T05:59:16.068Z,53.60
2022-10-22T06:01:44.633Z,47.60
2022-10-22T06:04:13.596Z,44.83
2022-10-22T06:06:53.548Z,39.38
2022-10-22T06:09:28.141Z,40.92
2022-10-22T06:11:57.412Z,43.78
2022-10-22T06:14:25.974Z,43.72
2022-10-22T06:16:54.534Z,43.40
2022-10-22T06:19:27.295Z,46.83
2022-10-22T06:21:55.513Z,43.97
2022-10-22T06:24:23.536Z,46.15
2022-10-22T06:26:52.495Z,43.22
2022-10-22T06:29:22.147Z,40.53
2022-10-22T06:31:50.259Z,42.95
2022-10-22T06:34:19.235Z,46.80
2022-10-22T06:36:47.727Z,45.08
2022-10-22T06:39:17.924Z,41.47
2022-10-22T06:41:46.104Z,50.10
2022-10-22T06:44:19.735Z,42.42
2022-10-22T06:46:52.667Z,42.75
2022-10-22T06:49:21.888Z,47.17
2022-10-22T06:51:54.167Z,43.03
2022-10-22T06:54:23.066Z,42.97
2022-10-22T06:56:51.327Z,46.13
2022-10-22T06:59:19.187Z,40.20
2022-10-22T07:01:47.477Z,40.47
2022-10-22T07:04:15.792Z,44.20
2022-10-22T07:06:44.215Z,44.20
2022-10-22T07:09:12.452Z,46.97
2022-10-22T07:11:43.540Z,46.50
2022-10-22T07:14:12.462Z,44.47
2022-10-22T07:16:45.811Z,43.28
2022-10-22T07:19:14.363Z,43.45
2022-10-22T07:21:44.539Z,43.72
2022-10-22T07:24:12.449Z,38.80
2022-10-22T07:26:41.273Z,39.22
2022-10-22T07:29:10.291Z,38.92
2022-10-22T07:31:38.573Z,39.13
2022-10-22T07:34:06.497Z,35.58
2022-10-22T07:36:35.036Z,42.20
2022-10-22T07:39:03.173Z,43.42
2022-10-22T07:41:31.313Z,48.38
2022-10-22T07:43:59.652Z,48.80
2022-10-22T07:46:28.465Z,47.88
2022-10-22T07:48:56.566Z,46.55
2022-10-22T07:51:24.824Z,37.22
2022-10-22T07:53:52.618Z,31.17
2022-10-22T07:56:21.321Z,34.80
2022-10-22T07:58:49.179Z,33.03
2022-10-22T08:01:17.515Z,29.10
2022-10-22T08:03:45.345Z,27.45
2022-10-22T08:06:15.095Z,26.83
2022-10-22T08:08:43.837Z,27.95
2022-10-22T08:11:12.263Z,27.58
2022-10-22T08:13:44.874Z,23.83
2022-10-22T08:16:14.512Z,28.65
2022-10-22T08:18:42.320Z,28.38
2022-10-22T08:21:11.611Z,21.80
2022-10-22T08:23:39.531Z,22.05
2022-10-22T08:26:07.666Z,20.17
2022-10-22T08:28:37.376Z,19.20
2022-10-22T08:31:08.692Z,20.60
2022-10-22T08:33:39.022Z,20.10
2022-10-22T08:36:08.298Z,21.85
2022-10-22T08:38:36.277Z,19.73
2022-10-22T08:41:24.577Z,18.83
2022-10-22T08:44:33.045Z,19.30
2022-10-22T08:47:25.553Z,20.65
2022-10-22T08:49:54.934Z,39.45
2022-10-22T08:52:23.008Z,23.67
2022-10-22T08:54:59.595Z,21.15
2022-10-22T08:57:52.129Z,19.63
2022-10-22T09:00:37.847Z,20.17
2022-10-22T09:03:33.404Z,22.98
2022-10-22T09:06:18.992Z,18.92
2022-10-22T09:08:48.743Z,21.60
2022-10-22T09:11:38.210Z,18.88
2022-10-22T09:14:07.181Z,23.15
2022-10-22T09:16:53.110Z,26.02
2022-10-22T09:19:39.999Z,23.88
2022-10-22T09:22:41.679Z,27.60
2022-10-22T09:25:27.092Z,30.80
2022-10-22T09:27:58.769Z,32.20
2022-10-22T09:30:34.261Z,27.83
2022-10-22T09:33:08.342Z,39.90
2022-10-22T09:36:03.666Z,33.80
2022-10-22T09:38:33.920Z,32.00
2022-10-22T09:41:05.781Z,31.90
2022-10-22T09:43:36.333Z,30.83
2022-10-22T09:48:41.133Z,35.22
2022-10-22T09:51:17.989Z,32.45
2022-10-22T09:54:00.260Z,32.33
2022-10-22T09:56:37.302Z,35.75
2022-10-22T09:59:14.141Z,32.47
2022-10-22T10:01:42.975Z,35.92
2022-10-22T10:04:17.676Z,35.63
2022-10-22T10:06:45.990Z,43.35
2022-10-22T10:09:18.050Z,44.30
2022-10-22T10:12:04.622Z,47.97
2022-10-22T10:14:41.421Z,48.28
2022-10-22T10:17:23.748Z,41.30
2022-10-22T10:20:14.936Z,43.10
2022-10-22T10:22:58.024Z,38.88
2022-10-22T10:25:40.074Z,32.75
2022-10-22T10:28:25.845Z,33.90
2022-10-22T10:31:26.058Z,29.88
2022-10-22T10:33:54.076Z,30.42
2022-10-22T10:36:36.866Z,26.98
2022-10-22T10:39:18.965Z,27.17
2022-10-22T10:42:05.265Z,27.27
2022-10-22T10:44:48.817Z,26.65
2022-10-22T10:47:26.118Z,39.90
2022-10-22T10:49:59.821Z,50.83
2022-10-22T10:52:57.386Z,33.65
2022-10-22T10:55:36.354Z,36.25
2022-10-22T10:58:13.385Z,25.42
2022-10-22T11:01:11.894Z,28.77
2022-10-22T11:04:01.119Z,28.15
2022-10-22T11:06:32.889Z,37.35
2022-10-22T11:09:18.263Z,39.08
2022-10-22T11:11:50.671Z,35.85
2022-10-22T11:14:27.823Z,36.28
2022-10-22T11:17:15.314Z,40.15
2022-10-22T11:19:52.266Z,38.00
2022-10-22T11:22:32.366Z,48.55
2022-10-22T11:25:16.859Z,40.10
2022-10-22T11:28:06.594Z,43.58
2022-10-22T11:30:40.537Z,42.72
2022-10-22T11:33:15.354Z,38.85
2022-10-22T11:35:52.895Z,42.83
2022-10-22T11:38:26.783Z,42.80
2022-10-22T11:41:18.491Z,53.20
2022-10-22T11:44:01.431Z,49.95
2022-10-22T11:46:55.556Z,45.47
2022-10-22T11:49:57.053Z,42.70
2022-10-22T11:55:02.533Z,47.10
2022-10-22T11:57:43.863Z,41.58
2022-10-22T12:00:40.353Z,46.80
2022-10-22T12:03:23.868Z,49.10
2022-10-22T12:06:19.986Z,48.08
2022-10-22T12:08:53.535Z,50.75
2022-10-22T12:11:41.357Z,54.63
2022-10-22T12:14:19.994Z,53.95
2022-10-22T12:16:58.649Z,114.13
2022-10-22T12:19:40.088Z,117.55
2022-10-22T12:22:19.794Z,107.53
2022-10-22T12:24:50.063Z,72.43
2022-10-22T12:27:25.007Z,61.30
2022-10-22T12:29:57.864Z,55.10
2022-10-22T12:32:37.697Z,54.72
2022-10-22T12:35:09.261Z,58.63
2022-10-22T12:37:38.944Z,52.25
2022-10-22T12:40:28.092Z,94.50
2022-10-22T12:43:02.381Z,109.07
2022-10-22T12:45:33.395Z,170.95
2022-10-22T12:48:16.080Z,149.65
2022-10-22T12:50:50.165Z,199.65
2022-10-22T12:53:40.063Z,196.85
2022-10-22T12:56:13.031Z,108.35
2022-10-22T12:58:45.707Z,72.70
2022-10-22T13:01:17.885Z,78.75
2022-10-22T13:03:54.119Z,108.82
2022-10-22T13:06:25.538Z,196.80
2022-10-22T13:09:27.451Z,113.88
2022-10-22T13:12:04.450Z,153.15
2022-10-22T13:14:35.207Z,120.30
2022-10-22T13:17:24.123Z,85.00
2022-10-22T13:19:55.545Z,63.85
2022-10-22T13:25:16.459Z,53.42
2022-10-22T13:27:46.396Z,57.63
2022-10-22T13:30:53.568Z,53.53
2022-10-22T13:33:30.454Z,117.50
2022-10-22T13:36:10.605Z,102.55
2022-10-22T13:38:38.471Z,78.57
2022-10-22T13:41:23.036Z,68.53
2022-10-22T13:43:52.298Z,63.75
2022-10-22T13:46:21.936Z,54.47
2022-10-22T13:48:52.951Z,50.35
2022-10-22T13:51:28.296Z,46.42
2022-10-22T13:53:56.156Z,46.97
2022-10-22T13:56:24.341Z,61.75
2022-10-22T13:58:52.800Z,71.28
2022-10-22T14:01:23.957Z,74.00
2022-10-22T14:06:25.312Z,53.47
2022-10-22T14:08:59.467Z,59.85
2022-10-22T14:11:28.662Z,137.55
2022-10-22T14:13:56.700Z,102.45
2022-10-22T14:16:26.939Z,78.55
2022-10-22T14:18:56.349Z,97.87
2022-10-22T14:21:24.740Z,86.47
2022-10-22T14:23:54.472Z,89.25
2022-10-22T14:26:27.625Z,80.60
2022-10-22T14:29:11.659Z,67.90
2022-10-22T14:31:44.819Z,68.85
2022-10-22T14:34:15.564Z,76.97
2022-10-22T14:36:46.258Z,80.05
2022-10-22T14:39:14.359Z,72.93
2022-10-22T14:41:43.677Z,79.13
2022-10-22T14:44:14.971Z,82.28
2022-10-22T14:46:47.110Z,81.90
2022-10-22T14:49:14.911Z,80.10
2022-10-22T14:51:43.307Z,114.85
2022-10-22T14:54:11.396Z,122.97
2022-10-22T14:56:39.560Z,131.63
2022-10-22T14:59:07.310Z,116.72
2022-10-22T15:01:35.592Z,103.90
2022-10-22T15:04:05.925Z,89.28
2022-10-22T15:06:36.980Z,87.35
2022-10-22T15:09:05.046Z,88.15
2022-10-22T15:11:33.229Z,79.25
2022-10-22T15:14:01.024Z,77.55
2022-10-22T15:16:29.371Z,76.70
2022-10-22T15:18:57.503Z,108.45
2022-10-22T15:21:26.131Z,88.57
2022-10-22T15:23:54.059Z,96.30
2022-10-22T15:26:22.668Z,96.75
2022-10-22T15:28:53.019Z,93.82
2022-10-22T15:31:52.973Z,87.68
2022-10-22T15:34:23.552Z,126.20
2022-10-22T15:37:00.440Z,215.95
2022-10-22T15:39:28.837Z,232.80
2022-10-22T15:42:00.169Z,191.88
2022-10-22T15:46:58.525Z,204.32
2022-10-22T15:49:28.478Z,151.45
2022-10-22T15:51:57.105Z,135.23
2022-10-22T15:54:28.872Z,132.38
2022-10-22T15:56:58.798Z,104.45
2022-10-22T15:59:26.814Z,117.20
2022-10-22T16:01:55.184Z,106.15
2022-10-22T16:04:23.181Z,146.15
2022-10-22T16:06:53.222Z,101.57
2022-10-22T16:09:23.760Z,103.00
2022-10-22T16:14:21.997Z,94.10
2022-10-22T16:16:53.111Z,91.18
2022-10-22T16:19:23.477Z,85.28
2022-10-22T16:21:53.821Z,113.95
2022-10-22T16:24:22.392Z,75.07
2022-10-22T16:26:50.649Z,94.60
2022-10-22T16:29:18.538Z,97.80
2022-10-22T16:31:46.598Z,103.32
2022-10-22T16:34:14.462Z,140.23
2022-10-22T16:36:42.623Z,131.80
2022-10-22T16:39:10.670Z,129.73
2022-10-22T16:41:38.851Z,116.75
2022-10-22T16:44:09.777Z,115.65
2022-10-22T16:46:39.788Z,138.73
2022-10-22T16:49:10.578Z,160.93
2022-10-22T16:51:39.635Z,126.30
2022-10-22T16:54:11.269Z,275.77
2022-10-22T16:56:40.619Z,232.07
2022-10-22T16:59:08.728Z,207.25
2022-10-22T17:01:40.605Z,407.75
2022-10-22T17:04:09.432Z,307.73
2022-10-22T17:06:39.816Z,308.20
2022-10-22T17:09:08.811Z,322.90
2022-10-22T17:11:40.211Z,170.95
2022-10-22T17:14:10.839Z,179.35
2022-10-22T17:16:39.302Z,159.50
2022-10-22T17:19:07.429Z,205.70
2022-10-22T17:21:38.892Z,128.50
2022-10-22T17:24:12.809Z,121.20
2022-10-22T17:26:41.115Z,124.07
2022-10-22T17:29:08.894Z,170.93
2022-10-22T17:31:37.900Z,171.98
2022-10-22T17:34:11.030Z,147.77
2022-10-22T17:36:42.388Z,166.32
2022-10-22T17:39:18.383Z,177.45
2022-10-22T17:41:46.654Z,150.55
2022-10-22T17:44:16.187Z,146.55
2022-10-22T17:46:49.789Z,170.13
2022-10-22T17:49:20.455Z,142.82
2022-10-22T17:54:16.633Z,142.05
2022-10-22T17:56:44.839Z,128.48
2022-10-22T17:59:14.883Z,130.07
2022-10-22T18:01:47.884Z,151.00
2022-10-22T18:04:18.143Z,151.10
2022-10-22T18:06:47.519Z,163.38
2022-10-22T18:09:18.934Z,162.02
2022-10-22T18:11:53.012Z,317.75
2022-10-22T18:14:22.534Z,195.50
2022-10-22T18:16:51.469Z,154.75
2022-10-22T18:19:22.617Z,161.10
2022-10-22T18:21:51.184Z,142.30
2022-10-22T18:24:22.225Z,165.43
2022-10-22T18:26:50.632Z,171.27
2022-10-22T18:29:20.681Z,215.32
2022-10-22T18:31:49.438Z,446.08
2022-10-22T18:34:20.351Z,221.95
2022-10-22T18:36:51.260Z,199.90
2022-10-22T18:39:19.765Z,183.95
2022-10-22T18:41:48.232Z,275.05
2022-10-22T18:44:16.805Z,263.70
2022-10-22T18:46:45.228Z,148.63
2022-10-22T18:49:18.652Z,348.20
2022-10-22T18:51:53.119Z,400.55
2022-10-22T18:54:23.643Z,298.55
2022-10-22T18:56:53.647Z,285.77
2022-10-22T18:59:23.837Z,394.90
2022-10-22T19:01:53.810Z,345.27
2022-10-22T19:04:22.196Z,350.48
2022-10-22T19:06:50.307Z,373.73
2022-10-22T19:09:18.133Z,197.88
2022-10-22T19:11:47.142Z,236.90
2022-10-22T19:14:15.321Z,295.23
2022-10-22T19:16:43.420Z,225.68
2022-10-22T19:19:15.437Z,309.50
2022-10-22T19:21:43.569Z,200.70
2022-10-22T19:24:12.405Z,158.48
2022-10-22T19:26:41.440Z,202.20
2022-10-22T19:29:11.183Z,190.55
2022-10-22T19:31:41.134Z,188.30
2022-10-22T19:34:09.981Z,175.32
2022-10-22T19:36:38.399Z,154.68
2022-10-22T19:39:06.645Z,169.05
2022-10-22T19:41:35.289Z,174.77
2022-10-22T19:44:03.130Z,307.25
2022-10-22T19:46:32.848Z,224.68
2022-10-22T19:49:03.579Z,271.52
2022-10-22T19:51:34.040Z,320.77
2022-10-22T19:54:07.740Z,216.63
2022-10-22T19:56:37.959Z,222.32
2022-10-22T19:59:06.290Z,370.88
2022-10-22T20:01:34.950Z,295.80
2022-10-22T20:04:03.422Z,252.98
2022-10-22T20:06:31.721Z,314.38
2022-10-22T20:08:59.822Z,474.27
2022-10-22T20:11:29.726Z,334.17
2022-10-22T20:13:58.434Z,243.73
2022-10-22T20:16:31.581Z,475.17
2022-10-22T20:19:02.212Z,362.52
2022-10-22T20:23:59.352Z,226.07
2022-10-22T20:26:28.495Z,430.50
2022-10-22T20:28:57.824Z,426.33
2022-10-22T20:31:28.760Z,272.48
2022-10-22T20:33:58.675Z,227.95
2022-10-22T20:36:27.606Z,183.38
2022-10-22T20:39:06.431Z,266.27
2022-10-22T20:41:35.541Z,158.90
2022-10-22T20:44:03.999Z,189.80
2022-10-22T20:46:34.014Z,150.75
2022-10-22T20:49:05.105Z,165.30
2022-10-22T20:51:35.075Z,136.20
2022-10-22T20:54:02.984Z,130.55
2022-10-22T20:56:32.494Z,114.20
2022-10-22T20:59:08.388Z,106.40
2022-10-22T21:01:56.292Z,125.15
2022-10-22T21:04:24.086Z,90.60
2022-10-22T21:06:55.734Z,85.45
2022-10-22T21:09:24.852Z,80.25
2022-10-22T21:11:58.347Z,76.97
2022-10-22T21:14:26.202Z,80.80
2022-10-22T21:16:54.449Z,72.43
2022-10-22T21:19:23.409Z,75.53
2022-10-22T21:21:51.937Z,75.93
2022-10-22T21:24:24.826Z,78.18
2022-10-22T21:26:53.536Z,71.25
2022-10-22T21:29:21.998Z,76.88
2022-10-22T21:31:50.165Z,76.97
2022-10-22T21:34:17.929Z,86.05
2022-10-22T21:39:41.025Z,67.70
2022-10-22T21:42:10.425Z,71.07
2022-10-22T21:44:38.296Z,67.35
2022-10-22T21:47:06.352Z,72.78
2022-10-22T21:49:34.598Z,69.93
2022-10-22T21:52:03.218Z,71.55
2022-10-22T21:54:30.937Z,71.45
2022-10-22T21:56:59.172Z,64.82
2022-10-22T21:59:27.671Z,65.60
2022-10-22T22:01:55.742Z,63.88
2022-10-22T22:04:23.505Z,74.78
2022-10-22T22:06:51.655Z,80.93
2022-10-22T22:09:20.362Z,74.38
2022-10-22T22:11:48.552Z,66.63
2022-10-22T22:14:16.382Z,69.68
2022-10-22T22:16:44.451Z,57.85
2022-10-22T22:19:12.926Z,58.28
2022-10-22T22:21:41.706Z,45.58
2022-10-22T22:24:12.975Z,52.28
2022-10-22T22:26:41.539Z,51.85
2022-10-22T22:29:10.687Z,43.20
2022-10-22T22:31:39.095Z,40.97
2022-10-22T22:34:10.983Z,33.38
2022-10-22T22:36:42.147Z,29.67
2022-10-22T22:41:40.814Z,30.90
2022-10-22T22:44:08.513Z,34.13
2022-10-22T22:46:36.885Z,31.17
2022-10-22T22:49:05.349Z,34.80
2022-10-22T22:51:33.720Z,32.75
2022-10-22T22:54:02.366Z,49.35
2022-10-22T22:56:32.162Z,31.17
2022-10-22T22:59:00.353Z,44.95
2022-10-22T23:01:36.930Z,37.75
2022-10-22T23:04:07.729Z,32.33
2022-10-22T23:06:37.958Z,37.13
2022-10-22T23:09:09.067Z,36.30
2022-10-22T23:11:37.337Z,38.92
2022-10-22T23:14:07.532Z,36.00
2022-10-22T23:16:38.161Z,34.72
2022-10-22T23:19:06.376Z,42.22
2022-10-22T23:21:37.843Z,34.88
2022-10-22T23:24:09.166Z,39.20
2022-10-22T23:26:43.652Z,36.72
2022-10-22T23:29:13.049Z,36.70
2022-10-22T23:31:42.137Z,32.05
2022-10-22T23:34:12.403Z,36.67
2022-10-22T23:36:40.671Z,35.30
2022-10-22T23:39:11.381Z,35.20
2022-10-22T23:41:40.383Z,36.25
2022-10-22T23:44:09.265Z,37.85
2022-10-22T23:46:40.589Z,36.28
2022-10-22T23:49:10.032Z,31.92
2022-10-22T23:51:38.783Z,37.03
2022-10-22T23:54:10.837Z,39.97
2022-10-22T23:56:39.295Z,39.25
2022-10-22T23:59:08.177Z,35.75
